Potomac, IL (61865)

11:49 PM CDT on April 25, 2015 (GMT -0500)
K9ADL | | Change Station
CLOSE
Current Station
Personal Weather Station
Location: Oakwood, IL
Elevation: 725 ft
Nearby Weather Stations

Elev 725 ft 40.17 °N, 87.77 °W | Updated 2 seconds ago

Overcast
Overcast
44.2 °F
Feels Like 40 °F
N
8.1
Wind Variable Wind from NE
Gusts 8.1 mph

Today
High -- | Low -- °F
--% Chance of Precip.
Yesterday
High -- | Low -- °F
Precip. -- in
5:58 AM 7:40 PM
First Quarter, 52% visible
Pressure 29.75 in
Visibility 10.0 miles
Clouds Overcast 1700 ft
Windchill 40 °F
Dew Point 44 °F
Humidity 99%
Rainfall 0.50 in
Snow Depth Not available.
UV 0 out of 12
Pollen 3.20 out of 12
Air Quality Not available.
Flu Activity Regional
METAR KDNV 260435Z AUTO 05011KT 10SM OVC017 06/04 A2975 RMK AO2 T00630042

More Conditions Fewer Conditions

Pressure 29.75 in
Visibility 10.0 miles
Clouds Overcast 1700 ft
Windchill 40 °F
Dew Point 44 °F
Humidity 99%
Rainfall 0.50 in
Snow Depth Not available.
UV 0 out of 12
Pollen 3.20 out of 12
Air Quality Not available.
Flu Activity Regional
METAR KDNV 260435Z AUTO 05011KT 10SM OVC017 06/04 A2975 RMK AO2 T00630042

More Conditions Fewer Conditions

The full scope of the disaster following a powerful 7.8-magnitude earthquake in Nepal may not come into view for days, but global charities are already sending emergency aid. Click to see how you can help.

10-Day Weather Forecast

Almanac

Astronomy

Apr. 25, 2015 Rise Set
Actual Time
Civil Twilight
Nautical Twilight
Astronomical Twilight
Moon
Length of Visible Light
Length of Day
Tomorrow will be .
, % of the Moon is Illuminated

Today's Extremes

State Highs State Lows

Community

WunderPhotos

Upload Photos

1,816,938 photos uploaded!

WunderBlogs® & News

Nearby

Air Quality

  Air Quality AQ Index Pollutant
Not available.

Snow Depth

Station Depth Elevation

Earthquake Activity

City Distance Mag. Time & Date
Minimum magnitude displayed is 2.5.

Coastal Water Temperatures

Place Temperature

Stations

Nearby Weather Stations

Station Location Temp. Windchill Dew Point Humidity Wind Precip. Elev Updated Type